createdAt,value
2023-02-26T00:00:51.573Z,-0.50
2023-02-26T00:02:54.224Z,-0.60
2023-02-26T00:04:56.819Z,-0.60
2023-02-26T00:06:59.751Z,-0.60
2023-02-26T00:09:02.941Z,-0.70
2023-02-26T00:11:07.066Z,-0.60
2023-02-26T00:13:10.609Z,-0.60
2023-02-26T00:15:15.145Z,-0.70
2023-02-26T00:17:23.677Z,-0.70
2023-02-26T00:19:54.651Z,-0.70
2023-02-26T00:22:12.852Z,-0.80
2023-02-26T00:24:17.745Z,-0.80
2023-02-26T00:26:21.192Z,-0.80
2023-02-26T00:28:24.337Z,-0.80
2023-02-26T00:30:27.926Z,-0.80
2023-02-26T00:32:32.194Z,-0.80
2023-02-26T00:34:36.364Z,-0.90
2023-02-26T00:36:40.700Z,-0.90
2023-02-26T00:38:44.834Z,-0.90
2023-02-26T00:40:48.718Z,-0.90
2023-02-26T00:42:51.904Z,-0.90
2023-02-26T00:44:55.085Z,-0.90
2023-02-26T00:47:00.341Z,-1.00
2023-02-26T00:49:05.442Z,-0.90
2023-02-26T00:51:10.972Z,-0.90
2023-02-26T00:53:15.262Z,-0.90
2023-02-26T00:55:19.088Z,-1.00
2023-02-26T00:57:21.561Z,-0.90
2023-02-26T00:59:24.663Z,-1.00
2023-02-26T01:01:27.256Z,-1.00
2023-02-26T01:03:32.122Z,-1.00
2023-02-26T01:05:35.124Z,-1.10
2023-02-26T01:07:40.209Z,-1.00
2023-02-26T01:09:43.077Z,-1.00
2023-02-26T01:11:46.324Z,-1.00
2023-02-26T01:13:49.421Z,-1.10
2023-02-26T01:15:54.021Z,-1.20
2023-02-26T01:17:58.472Z,-1.10
2023-02-26T01:20:03.307Z,-1.10
2023-02-26T01:22:08.231Z,-1.10
2023-02-26T01:24:12.656Z,-1.10
2023-02-26T01:26:17.101Z,-1.00
2023-02-26T01:28:20.341Z,-1.00
2023-02-26T01:30:25.343Z,-1.10
2023-02-26T01:32:29.795Z,-1.10
2023-02-26T01:34:35.334Z,-1.10
2023-02-26T01:36:39.833Z,-1.10
2023-02-26T01:38:44.263Z,-1.10
2023-02-26T01:40:53.698Z,-1.10
2023-02-26T01:42:58.540Z,-1.10
2023-02-26T01:45:03.268Z,-1.10
2023-02-26T01:47:09.009Z,-1.10
2023-02-26T01:49:13.431Z,-1.20
2023-02-26T01:51:16.148Z,-1.10
2023-02-26T01:53:20.497Z,-1.10
2023-02-26T01:55:24.811Z,-1.20
2023-02-26T01:57:27.286Z,-1.10
2023-02-26T01:59:29.970Z,-1.10
2023-02-26T02:01:33.553Z,-1.10
2023-02-26T02:03:38.001Z,-1.10
2023-02-26T02:05:42.374Z,-1.20
2023-02-26T02:07:44.959Z,-1.20
2023-02-26T02:09:47.676Z,-1.20
2023-02-26T02:11:55.535Z,-1.20
2023-02-26T02:14:02.732Z,-1.90
2023-02-26T02:16:10.697Z,-1.20
2023-02-26T02:18:15.064Z,-1.20
2023-02-26T02:20:34.711Z,-1.20
2023-02-26T02:22:42.980Z,-1.20
2023-02-26T02:24:48.335Z,-1.20
2023-02-26T02:26:55.673Z,-1.20
2023-02-26T02:29:11.715Z,-1.20
2023-02-26T02:31:16.542Z,-1.20
2023-02-26T02:33:22.831Z,-1.20
2023-02-26T02:35:27.127Z,-1.20
2023-02-26T02:37:31.769Z,-1.30
2023-02-26T02:39:36.414Z,-1.30
2023-02-26T02:41:40.524Z,-1.30
2023-02-26T02:43:45.408Z,-1.30
2023-02-26T02:45:51.516Z,-1.30
2023-02-26T02:47:56.352Z,-1.30
2023-02-26T02:50:01.118Z,-1.30
2023-02-26T02:52:05.536Z,-1.30
2023-02-26T02:54:10.092Z,-1.30
2023-02-26T02:56:14.799Z,-1.30
2023-02-26T02:58:19.159Z,-1.30
2023-02-26T03:00:23.584Z,-1.30
2023-02-26T03:02:27.979Z,-1.40
2023-02-26T03:04:30.436Z,-1.30
2023-02-26T03:06:33.608Z,-1.40
2023-02-26T03:08:38.477Z,-1.40
2023-02-26T03:10:41.186Z,-1.40
2023-02-26T03:12:44.695Z,-1.40
2023-02-26T03:14:47.596Z,-1.40
2023-02-26T03:17:10.487Z,-1.30
2023-02-26T03:19:16.263Z,-1.30
2023-02-26T03:21:21.367Z,-1.30
2023-02-26T03:23:26.192Z,-1.30
2023-02-26T03:25:30.836Z,-1.30
2023-02-26T03:27:35.616Z,-1.30
2023-02-26T03:29:40.753Z,-1.30
2023-02-26T03:31:45.583Z,-1.20
2023-02-26T03:33:50.362Z,-1.30
2023-02-26T03:35:54.698Z,-1.30
2023-02-26T03:37:59.312Z,-1.30
2023-02-26T03:40:04.996Z,-1.30
2023-02-26T03:42:09.491Z,-1.30
2023-02-26T03:44:15.748Z,-1.40
2023-02-26T03:46:20.327Z,-1.40
2023-02-26T03:48:25.479Z,-1.40
2023-02-26T03:50:30.443Z,-1.40
2023-02-26T03:52:36.736Z,-1.40
2023-02-26T03:54:43.515Z,-1.40
2023-02-26T03:56:48.556Z,-1.40
2023-02-26T03:58:53.073Z,-1.40
2023-02-26T04:00:59.051Z,-1.50
2023-02-26T04:03:03.767Z,-1.50
2023-02-26T04:05:08.275Z,-1.50
2023-02-26T04:07:12.679Z,-1.50
2023-02-26T04:09:16.255Z,-1.50
2023-02-26T04:11:20.425Z,-1.60
2023-02-26T04:13:23.019Z,-1.50
2023-02-26T04:15:25.607Z,-1.60
2023-02-26T04:17:30.209Z,-1.60
2023-02-26T04:19:33.011Z,-1.50
2023-02-26T04:21:35.632Z,-1.60
2023-02-26T04:23:39.952Z,-1.50
2023-02-26T04:25:42.644Z,-1.60
2023-02-26T04:27:45.735Z,-1.60
2023-02-26T04:29:48.301Z,-1.60
2023-02-26T04:31:51.121Z,-1.60
2023-02-26T04:33:55.119Z,-1.70
2023-02-26T04:35:58.008Z,-1.70
2023-02-26T04:38:01.517Z,-1.70
2023-02-26T04:40:05.228Z,-1.70
2023-02-26T04:42:07.835Z,-1.70
2023-02-26T04:44:10.710Z,-1.70
2023-02-26T04:46:15.420Z,-1.80
2023-02-26T04:48:18.277Z,-1.80
2023-02-26T04:50:20.928Z,-1.80
2023-02-26T04:52:25.638Z,-1.80
2023-02-26T04:54:28.495Z,-1.80
2023-02-26T04:56:31.804Z,-1.80
2023-02-26T04:58:34.409Z,-1.80
2023-02-26T05:00:39.651Z,-1.80
2023-02-26T05:02:42.258Z,-1.90
2023-02-26T05:04:44.862Z,-1.90
2023-02-26T05:06:47.570Z,-1.90
2023-02-26T05:08:50.174Z,-1.90
2023-02-26T05:10:53.570Z,-2.00
2023-02-26T05:12:56.160Z,-2.00
2023-02-26T05:14:58.971Z,-2.00
2023-02-26T05:17:01.615Z,-2.00
2023-02-26T05:19:04.251Z,-2.00
2023-02-26T05:21:06.912Z,-2.10
2023-02-26T05:23:09.500Z,-2.10
2023-02-26T05:25:12.613Z,-2.00
2023-02-26T05:27:15.983Z,-2.10
2023-02-26T05:29:20.358Z,-2.10
2023-02-26T05:31:23.031Z,-2.10
2023-02-26T05:33:27.442Z,-2.20
2023-02-26T05:35:29.921Z,-2.10
2023-02-26T05:37:32.448Z,-2.20
2023-02-26T05:39:34.972Z,-2.20
2023-02-26T05:41:37.519Z,-2.20
2023-02-26T05:43:40.012Z,-2.30
2023-02-26T05:45:42.536Z,-2.20
2023-02-26T05:47:44.996Z,-2.30
2023-02-26T05:49:47.514Z,-2.20
2023-02-26T05:51:50.052Z,-2.30
2023-02-26T05:53:52.500Z,-2.30
2023-02-26T05:55:55.214Z,-2.30
2023-02-26T05:57:57.725Z,-2.30
2023-02-26T06:00:00.235Z,-2.30
2023-02-26T06:02:02.751Z,-2.40
2023-02-26T06:04:05.413Z,-2.30
2023-02-26T06:06:08.858Z,-1.90
2023-02-26T06:08:13.701Z,-2.40
2023-02-26T06:10:15.984Z,-2.40
2023-02-26T06:12:18.488Z,-2.30
2023-02-26T06:14:21.012Z,-2.30
2023-02-26T06:16:24.203Z,-2.30
2023-02-26T06:18:27.472Z,-2.30
2023-02-26T06:20:30.701Z,-2.30
2023-02-26T06:22:33.208Z,-2.30
2023-02-26T06:24:35.809Z,-2.40
2023-02-26T06:26:38.270Z,-2.40
2023-02-26T06:28:41.265Z,-2.40
2023-02-26T06:30:43.788Z,-2.40
2023-02-26T06:32:46.402Z,-2.30
2023-02-26T06:34:48.911Z,-2.30
2023-02-26T06:36:51.408Z,-2.30
2023-02-26T06:38:53.892Z,-2.30
2023-02-26T06:40:56.411Z,-2.30
2023-02-26T06:42:59.164Z,-2.30
2023-02-26T06:45:01.932Z,-2.30
2023-02-26T06:47:04.790Z,-2.30
2023-02-26T06:49:07.284Z,-2.30
2023-02-26T06:51:09.787Z,-2.30
2023-02-26T06:53:12.290Z,-2.30
2023-02-26T06:55:14.771Z,-2.20
2023-02-26T06:57:17.301Z,-2.20
2023-02-26T06:59:20.026Z,-2.10
2023-02-26T07:01:23.742Z,-2.00
2023-02-26T07:03:26.396Z,-2.00
2023-02-26T07:05:28.944Z,-1.90
2023-02-26T07:07:31.436Z,-1.90
2023-02-26T07:09:33.895Z,-1.80
2023-02-26T07:11:36.391Z,-1.80
2023-02-26T07:13:39.204Z,-1.80
2023-02-26T07:15:41.709Z,-1.70
2023-02-26T07:17:44.490Z,-1.70
2023-02-26T07:19:47.415Z,-1.60
2023-02-26T07:21:49.901Z,-1.60
2023-02-26T07:23:52.404Z,-1.50
2023-02-26T07:25:55.793Z,-1.50
2023-02-26T07:27:59.595Z,-1.50
2023-02-26T07:30:02.193Z,-1.50
2023-02-26T07:32:04.941Z,-1.50
2023-02-26T07:34:07.484Z,-1.50
2023-02-26T07:36:10.272Z,-1.50
2023-02-26T07:38:12.807Z,-1.40
2023-02-26T07:40:15.435Z,-1.50
2023-02-26T07:42:18.341Z,-1.40
2023-02-26T07:44:20.812Z,-2.10
2023-02-26T07:46:23.477Z,-1.40
2023-02-26T07:48:26.354Z,-1.40
2023-02-26T07:50:29.647Z,-1.40
2023-02-26T07:52:32.124Z,-1.30
2023-02-26T07:54:34.667Z,-1.20
2023-02-26T07:56:38.220Z,-1.10
2023-02-26T07:58:40.694Z,-1.00
2023-02-26T08:00:43.213Z,-0.70
2023-02-26T08:02:45.681Z,-0.80
2023-02-26T08:04:48.279Z,-0.80
2023-02-26T08:06:50.783Z,-0.60
2023-02-26T08:08:53.329Z,-0.60
2023-02-26T08:10:55.804Z,-0.40
2023-02-26T08:12:58.392Z,-0.30
2023-02-26T08:15:00.986Z,-0.20
2023-02-26T08:17:03.445Z,-0.20
2023-02-26T08:19:05.978Z,0.00
2023-02-26T08:21:08.478Z,0.10
2023-02-26T08:23:10.947Z,0.10
2023-02-26T08:25:13.469Z,0.20
2023-02-26T08:27:16.425Z,0.30
2023-02-26T08:29:19.394Z,0.40
2023-02-26T08:31:22.007Z,0.50
2023-02-26T08:33:25.806Z,0.70
2023-02-26T08:35:28.429Z,0.80
2023-02-26T08:37:30.895Z,0.80
2023-02-26T08:39:35.198Z,0.90
2023-02-26T08:41:37.807Z,1.20
2023-02-26T08:43:40.444Z,1.20
2023-02-26T08:45:42.932Z,1.30
2023-02-26T08:47:56.170Z,1.40
2023-02-26T08:49:49.697Z,1.40
2023-02-26T08:51:52.214Z,1.60
2023-02-26T08:53:54.703Z,1.70
2023-02-26T08:55:57.232Z,1.40
2023-02-26T08:58:00.168Z,1.50
2023-02-26T09:00:04.817Z,1.60
2023-02-26T09:02:07.352Z,1.80
2023-02-26T09:04:09.923Z,1.80
2023-02-26T09:06:12.454Z,2.00
2023-02-26T09:08:15.481Z,2.10
2023-02-26T09:10:18.504Z,2.30
2023-02-26T09:12:21.027Z,2.20
2023-02-26T09:14:25.068Z,2.30
2023-02-26T09:16:28.121Z,2.20
2023-02-26T09:18:31.216Z,2.20
2023-02-26T09:20:33.735Z,2.30
2023-02-26T09:22:36.465Z,2.40
2023-02-26T09:24:39.024Z,2.40
2023-02-26T09:26:41.615Z,2.60
2023-02-26T09:28:44.167Z,2.40
2023-02-26T09:30:46.753Z,2.20
2023-02-26T09:32:49.477Z,2.20
2023-02-26T09:34:52.083Z,2.30
2023-02-26T09:36:54.543Z,2.30
2023-02-26T09:38:57.050Z,2.20
2023-02-26T09:41:01.385Z,2.20
2023-02-26T09:43:08.543Z,2.20
2023-02-26T09:45:12.836Z,2.30
2023-02-26T09:47:17.110Z,2.60
2023-02-26T09:49:22.512Z,2.60
2023-02-26T09:51:26.738Z,2.70
2023-02-26T09:53:31.147Z,2.40
2023-02-26T09:55:35.492Z,2.30
2023-02-26T09:57:40.076Z,2.60
2023-02-26T09:59:42.541Z,2.80
2023-02-26T10:01:48.178Z,2.70
2023-02-26T10:03:55.783Z,2.90
2023-02-26T10:06:18.860Z,2.80
2023-02-26T10:08:23.200Z,3.00
2023-02-26T10:10:29.011Z,2.80
2023-02-26T10:12:33.358Z,2.70
2023-02-26T10:14:37.583Z,2.90
2023-02-26T10:16:41.956Z,3.20
2023-02-26T10:18:46.419Z,3.30
2023-02-26T10:20:51.098Z,3.60
2023-02-26T10:22:58.906Z,3.60
2023-02-26T10:25:02.944Z,3.60
2023-02-26T10:27:06.916Z,3.50
2023-02-26T10:29:13.356Z,3.30
2023-02-26T10:31:19.584Z,3.60
2023-02-26T10:33:23.924Z,3.90
2023-02-26T10:35:27.328Z,4.20
2023-02-26T10:37:35.446Z,4.50
2023-02-26T10:39:39.713Z,4.60
2023-02-26T10:41:42.202Z,3.90
2023-02-26T10:43:46.495Z,4.10
2023-02-26T10:45:53.611Z,4.40
2023-02-26T10:47:59.977Z,4.60
2023-02-26T10:50:04.343Z,4.40
2023-02-26T10:52:11.964Z,4.00
2023-02-26T10:54:16.647Z,4.20
2023-02-26T10:56:21.081Z,4.50
2023-02-26T10:58:24.770Z,4.80
2023-02-26T11:00:27.303Z,4.90
2023-02-26T11:02:33.794Z,4.90
2023-02-26T11:04:36.443Z,4.60
2023-02-26T11:06:40.771Z,4.90
2023-02-26T11:08:44.539Z,4.90
2023-02-26T11:10:49.931Z,4.90
2023-02-26T11:12:52.955Z,5.20
2023-02-26T11:14:55.494Z,4.90
2023-02-26T11:16:59.231Z,5.10
2023-02-26T11:19:01.748Z,5.20
2023-02-26T11:21:05.663Z,4.80
2023-02-26T11:23:09.979Z,5.10
2023-02-26T11:25:13.821Z,5.40
2023-02-26T11:27:18.176Z,5.00
2023-02-26T11:29:22.547Z,5.00
2023-02-26T11:31:26.739Z,4.80
2023-02-26T11:33:31.515Z,4.50
2023-02-26T11:35:34.225Z,4.60
2023-02-26T11:37:38.262Z,4.40
2023-02-26T11:39:40.796Z,4.70
2023-02-26T11:41:44.392Z,5.00
2023-02-26T11:43:48.309Z,5.50
2023-02-26T11:45:53.339Z,5.90
2023-02-26T11:47:58.702Z,6.20
2023-02-26T11:50:04.210Z,5.80
2023-02-26T11:52:09.443Z,5.60
2023-02-26T11:54:20.561Z,5.10
2023-02-26T11:56:28.474Z,5.20
2023-02-26T11:58:33.233Z,5.30
2023-02-26T12:00:37.516Z,5.40
2023-02-26T12:02:40.059Z,4.70
2023-02-26T12:04:44.699Z,4.70
2023-02-26T12:06:48.722Z,4.80
2023-02-26T12:08:52.816Z,4.80
2023-02-26T12:11:00.275Z,4.50
2023-02-26T12:13:07.474Z,4.50
2023-02-26T12:15:15.264Z,4.40
2023-02-26T12:17:39.937Z,4.40
2023-02-26T12:19:44.270Z,4.80
2023-02-26T12:22:05.673Z,4.50
2023-02-26T12:24:15.811Z,4.50
2023-02-26T12:26:23.239Z,4.40
2023-02-26T12:28:30.510Z,4.30
2023-02-26T12:30:39.287Z,4.40
2023-02-26T12:32:46.331Z,4.50
2023-02-26T12:35:08.031Z,4.60
2023-02-26T12:37:16.403Z,4.80
2023-02-26T12:39:24.468Z,4.90
2023-02-26T12:41:31.987Z,5.20
2023-02-26T12:43:36.430Z,5.50
2023-02-26T12:45:45.024Z,4.90
2023-02-26T12:47:51.434Z,4.80
2023-02-26T12:49:59.107Z,4.70
2023-02-26T12:52:14.583Z,4.80
2023-02-26T12:54:21.214Z,4.50
2023-02-26T12:56:46.396Z,4.50
2023-02-26T12:58:53.184Z,4.70
2023-02-26T13:01:03.323Z,4.60
2023-02-26T13:03:17.377Z,4.50
2023-02-26T13:05:26.931Z,4.10
2023-02-26T13:07:45.725Z,4.40
2023-02-26T13:09:54.177Z,4.70
2023-02-26T13:12:00.547Z,4.90
2023-02-26T13:14:07.028Z,4.50
2023-02-26T13:16:13.622Z,4.50
2023-02-26T13:18:18.139Z,4.40
2023-02-26T13:20:22.534Z,4.70
2023-02-26T13:22:26.932Z,4.60
2023-02-26T13:24:31.220Z,4.80
2023-02-26T13:26:34.650Z,5.00
2023-02-26T13:28:40.073Z,4.60
2023-02-26T13:30:44.407Z,4.20
2023-02-26T13:32:47.752Z,4.20
2023-02-26T13:34:52.867Z,4.20
2023-02-26T13:36:55.961Z,4.50
2023-02-26T13:39:04.200Z,4.40
2023-02-26T13:41:11.192Z,4.30
2023-02-26T13:43:20.099Z,4.60
2023-02-26T13:45:26.241Z,4.30
2023-02-26T13:47:34.972Z,4.30
2023-02-26T13:49:39.532Z,4.30
2023-02-26T13:51:44.004Z,4.40
2023-02-26T13:53:52.864Z,4.30
2023-02-26T13:55:55.467Z,4.20
2023-02-26T13:57:57.970Z,4.10
2023-02-26T14:00:04.676Z,4.20
2023-02-26T14:02:36.735Z,3.90
2023-02-26T14:04:51.184Z,3.80
2023-02-26T14:06:55.118Z,3.70
2023-02-26T14:09:00.018Z,3.70
2023-02-26T14:11:04.459Z,3.80
2023-02-26T14:13:11.124Z,3.90
2023-02-26T14:15:39.336Z,4.00
2023-02-26T14:17:44.602Z,4.10
2023-02-26T14:20:08.280Z,4.40
2023-02-26T14:22:18.048Z,4.40
2023-02-26T14:24:23.305Z,4.60
2023-02-26T14:26:28.793Z,4.70
2023-02-26T14:28:38.182Z,4.70
2023-02-26T14:30:43.323Z,4.80
2023-02-26T14:32:48.182Z,4.70
2023-02-26T14:34:54.678Z,4.80
2023-02-26T14:36:58.970Z,4.80
2023-02-26T14:39:04.475Z,4.70
2023-02-26T14:41:09.378Z,4.60
2023-02-26T14:43:14.697Z,4.60
2023-02-26T14:45:37.337Z,4.60
2023-02-26T14:47:40.676Z,4.40
2023-02-26T14:49:45.224Z,4.40
2023-02-26T14:51:51.383Z,4.70
2023-02-26T14:54:19.592Z,4.50
2023-02-26T14:56:26.519Z,4.30
2023-02-26T14:58:34.340Z,4.20
2023-02-26T15:00:39.798Z,4.50
2023-02-26T15:02:47.445Z,4.70
2023-02-26T15:04:55.936Z,4.90
2023-02-26T15:07:30.150Z,5.00
2023-02-26T15:12:01.040Z,4.80
2023-02-26T15:14:11.874Z,4.60
2023-02-26T15:16:18.869Z,4.50
2023-02-26T15:18:27.593Z,4.40
2023-02-26T15:20:34.081Z,4.30
2023-02-26T15:22:41.362Z,4.40
2023-02-26T15:24:45.307Z,4.50
2023-02-26T15:26:49.776Z,4.70
2023-02-26T15:28:53.253Z,4.70
2023-02-26T15:30:56.533Z,4.70
2023-02-26T15:33:00.040Z,4.60
2023-02-26T15:35:04.420Z,4.80
2023-02-26T15:37:06.915Z,4.80
2023-02-26T15:39:10.330Z,4.60
2023-02-26T15:41:14.862Z,4.60
2023-02-26T15:43:20.552Z,4.50
2023-02-26T15:45:25.715Z,4.50
2023-02-26T15:47:29.646Z,4.70
2023-02-26T15:49:36.891Z,4.70
2023-02-26T15:51:41.918Z,4.80
2023-02-26T15:53:47.580Z,4.80
2023-02-26T15:55:52.441Z,4.70
2023-02-26T15:57:56.477Z,4.60
2023-02-26T16:00:06.901Z,4.40
2023-02-26T16:02:13.583Z,4.40
2023-02-26T16:04:18.009Z,4.40
2023-02-26T16:06:23.749Z,4.30
2023-02-26T16:08:27.600Z,4.20
2023-02-26T16:10:32.531Z,4.00
2023-02-26T16:12:41.782Z,3.90
2023-02-26T16:14:47.171Z,3.90
2023-02-26T16:16:51.862Z,3.80
2023-02-26T16:18:55.898Z,3.70
2023-02-26T16:21:02.045Z,3.70
2023-02-26T16:23:07.184Z,3.60
2023-02-26T16:25:12.214Z,3.60
2023-02-26T16:27:15.608Z,3.50
2023-02-26T16:29:21.665Z,3.50
2023-02-26T16:31:27.386Z,3.40
2023-02-26T16:33:32.742Z,3.40
2023-02-26T16:35:40.933Z,3.50
2023-02-26T16:37:47.121Z,3.40
2023-02-26T16:39:53.389Z,3.40
2023-02-26T16:42:03.296Z,3.40
2023-02-26T16:44:08.761Z,3.30
2023-02-26T16:46:15.082Z,3.20
2023-02-26T16:48:20.482Z,3.30
2023-02-26T16:50:26.439Z,3.10
2023-02-26T16:52:29.682Z,3.10
2023-02-26T16:54:36.447Z,3.10
2023-02-26T16:56:41.687Z,3.00
2023-02-26T16:58:45.781Z,3.00
2023-02-26T17:00:50.763Z,3.00
2023-02-26T17:02:54.060Z,3.10
2023-02-26T17:05:01.796Z,3.00
2023-02-26T17:07:08.190Z,2.90
2023-02-26T17:09:25.289Z,2.90
2023-02-26T17:11:32.806Z,2.90
2023-02-26T17:13:38.326Z,2.90
2023-02-26T17:15:42.227Z,2.90
2023-02-26T17:17:46.258Z,2.80
2023-02-26T17:19:49.411Z,2.70
2023-02-26T17:21:54.301Z,2.60
2023-02-26T17:23:58.214Z,2.50
2023-02-26T17:26:03.603Z,2.40
2023-02-26T17:28:07.638Z,2.30
2023-02-26T17:30:15.713Z,2.20
2023-02-26T17:32:19.832Z,2.20
2023-02-26T17:34:23.082Z,2.10
2023-02-26T17:36:27.897Z,2.10
2023-02-26T17:38:33.843Z,2.10
2023-02-26T17:40:38.089Z,2.10
2023-02-26T17:42:44.546Z,2.10
2023-02-26T17:44:48.740Z,2.10
2023-02-26T17:46:52.180Z,2.10
2023-02-26T17:48:57.186Z,2.00
2023-02-26T17:51:03.503Z,2.00
2023-02-26T17:53:09.482Z,1.90
2023-02-26T17:55:13.711Z,1.90
2023-02-26T17:57:18.993Z,1.90
2023-02-26T17:59:26.323Z,1.80
2023-02-26T18:04:03.878Z,1.80
2023-02-26T18:06:07.909Z,1.80
2023-02-26T18:08:14.739Z,1.70
2023-02-26T18:10:20.297Z,1.70
2023-02-26T18:12:23.491Z,1.70
2023-02-26T18:14:28.170Z,1.60
2023-02-26T18:16:33.822Z,1.60
2023-02-26T18:18:37.553Z,1.70
2023-02-26T18:20:41.606Z,1.90
2023-02-26T18:22:44.166Z,1.90
2023-02-26T18:24:46.674Z,2.00
2023-02-26T18:26:50.806Z,2.00
2023-02-26T18:28:55.225Z,2.10
2023-02-26T18:30:58.429Z,2.10
2023-02-26T18:33:01.388Z,2.20
2023-02-26T18:35:05.666Z,2.20
2023-02-26T18:37:11.143Z,2.30
2023-02-26T18:39:15.103Z,2.30
2023-02-26T18:41:17.591Z,2.40
2023-02-26T18:43:20.174Z,2.40
2023-02-26T18:45:22.713Z,2.40
2023-02-26T18:47:25.210Z,2.50
2023-02-26T18:49:27.843Z,2.50
2023-02-26T18:51:30.313Z,2.40
2023-02-26T18:53:33.830Z,2.40
2023-02-26T18:55:37.334Z,2.40
2023-02-26T18:57:41.845Z,2.40
2023-02-26T18:59:44.380Z,2.30
2023-02-26T19:01:47.462Z,2.30
2023-02-26T19:03:50.030Z,2.20
2023-02-26T19:05:58.942Z,2.10
2023-02-26T19:08:01.455Z,2.10
2023-02-26T19:10:04.200Z,2.00
2023-02-26T19:12:07.227Z,2.00
2023-02-26T19:14:09.847Z,1.90
2023-02-26T19:16:12.485Z,1.90
2023-02-26T19:18:15.022Z,1.80
2023-02-26T19:20:17.914Z,1.70
2023-02-26T19:22:20.408Z,1.60
2023-02-26T19:24:22.991Z,1.60
2023-02-26T19:26:26.108Z,1.50
2023-02-26T19:28:28.605Z,1.50
2023-02-26T19:30:32.174Z,1.40
2023-02-26T19:32:34.874Z,1.30
2023-02-26T19:34:37.748Z,1.30
2023-02-26T19:36:42.591Z,1.30
2023-02-26T19:38:46.948Z,1.20
2023-02-26T19:40:50.389Z,1.20
2023-02-26T19:42:52.900Z,1.20
2023-02-26T19:44:55.477Z,1.10
2023-02-26T19:46:58.578Z,1.10
2023-02-26T19:49:01.116Z,1.00
2023-02-26T19:51:04.239Z,1.00
2023-02-26T19:53:06.758Z,1.00
2023-02-26T19:55:10.407Z,1.00
2023-02-26T19:57:13.046Z,1.00
2023-02-26T19:59:15.568Z,1.00
2023-02-26T20:01:18.503Z,1.00
2023-02-26T20:03:21.602Z,1.00
2023-02-26T20:05:24.113Z,1.10
2023-02-26T20:07:26.653Z,1.10
2023-02-26T20:09:29.272Z,1.10
2023-02-26T20:11:31.754Z,1.10
2023-02-26T20:13:35.059Z,1.10
2023-02-26T20:15:37.644Z,1.00
2023-02-26T20:17:40.259Z,1.00
2023-02-26T20:19:43.939Z,1.00
2023-02-26T20:21:46.509Z,1.00
2023-02-26T20:23:49.108Z,0.90
2023-02-26T20:25:53.369Z,0.90
2023-02-26T20:27:55.936Z,0.90
2023-02-26T20:29:58.430Z,0.80
2023-02-26T20:32:01.027Z,0.80
2023-02-26T20:34:03.632Z,0.80
2023-02-26T20:36:07.197Z,0.80
2023-02-26T20:38:09.741Z,0.70
2023-02-26T20:40:12.914Z,0.70
2023-02-26T20:42:16.432Z,0.60
2023-02-26T20:44:18.942Z,0.60
2023-02-26T20:46:21.492Z,0.60
2023-02-26T20:48:24.336Z,0.50
2023-02-26T20:50:27.052Z,0.50
2023-02-26T20:52:29.611Z,0.50
2023-02-26T20:54:32.069Z,0.40
2023-02-26T20:56:34.568Z,0.40
2023-02-26T20:58:38.725Z,0.40
2023-02-26T21:00:41.291Z,0.40
2023-02-26T21:02:44.683Z,0.40
2023-02-26T21:04:47.359Z,0.40
2023-02-26T21:06:49.847Z,0.30
2023-02-26T21:08:52.375Z,0.30
2023-02-26T21:10:54.990Z,0.20
2023-02-26T21:12:57.474Z,0.20
2023-02-26T21:14:59.960Z,0.10
2023-02-26T21:17:04.068Z,0.20
2023-02-26T21:19:06.887Z,0.20
2023-02-26T21:21:09.465Z,0.20
2023-02-26T21:23:11.951Z,0.10
2023-02-26T21:25:14.725Z,0.10
2023-02-26T21:27:18.358Z,0.10
2023-02-26T21:29:22.103Z,0.20
2023-02-26T21:31:26.801Z,0.10
2023-02-26T21:33:31.394Z,0.10
2023-02-26T21:35:35.972Z,0.10
2023-02-26T21:37:40.331Z,0.10
2023-02-26T21:39:44.755Z,0.10
2023-02-26T21:41:48.780Z,0.10
2023-02-26T21:43:52.652Z,0.10
2023-02-26T21:45:57.271Z,0.10
2023-02-26T21:48:01.046Z,0.10
2023-02-26T21:50:05.647Z,0.00
2023-02-26T21:52:09.611Z,0.00
2023-02-26T21:54:12.384Z,0.00
2023-02-26T21:56:16.090Z,0.00
2023-02-26T21:58:19.819Z,0.00
2023-02-26T22:00:23.348Z,0.00
2023-02-26T22:02:25.877Z,0.00
2023-02-26T22:04:37.707Z,-0.10
2023-02-26T22:06:40.346Z,-0.10
2023-02-26T22:08:42.944Z,-0.10
2023-02-26T22:10:45.731Z,-0.20
2023-02-26T22:12:48.264Z,-0.20
2023-02-26T22:14:51.277Z,-0.20
2023-02-26T22:16:53.849Z,-0.30
2023-02-26T22:18:56.792Z,-0.30
2023-02-26T22:20:59.425Z,-0.30
2023-02-26T22:23:01.987Z,-0.40
2023-02-26T22:25:05.141Z,-0.40
2023-02-26T22:27:08.960Z,-0.40
2023-02-26T22:29:11.492Z,-0.40
2023-02-26T22:31:15.381Z,-0.40
2023-02-26T22:33:18.652Z,-0.40
2023-02-26T22:35:21.181Z,-0.50
2023-02-26T22:37:23.710Z,-0.50
2023-02-26T22:39:26.290Z,-0.50
2023-02-26T22:41:28.783Z,-0.50
2023-02-26T22:43:31.296Z,-0.60
2023-02-26T22:45:33.950Z,-0.50
2023-02-26T22:47:36.435Z,-0.60
2023-02-26T22:49:38.988Z,-0.60
2023-02-26T22:51:53.768Z,-0.60
2023-02-26T22:53:56.372Z,-1.10
2023-02-26T22:55:58.996Z,-0.80
2023-02-26T22:58:01.632Z,-0.70
2023-02-26T23:00:10.419Z,-0.70
2023-02-26T23:02:12.944Z,-0.60
2023-02-26T23:04:16.072Z,-0.60
2023-02-26T23:06:18.564Z,-0.60
2023-02-26T23:08:21.187Z,-0.70
2023-02-26T23:10:23.760Z,-0.60
2023-02-26T23:12:26.329Z,-0.60
2023-02-26T23:14:28.924Z,-0.50
2023-02-26T23:16:31.411Z,-0.50
2023-02-26T23:18:35.793Z,-0.40
2023-02-26T23:20:38.309Z,-0.60
2023-02-26T23:22:43.055Z,-0.40
2023-02-26T23:24:46.100Z,-0.40
2023-02-26T23:26:48.641Z,-0.50
2023-02-26T23:28:51.275Z,-0.40
2023-02-26T23:30:53.874Z,-0.20
2023-02-26T23:32:56.560Z,-0.20
2023-02-26T23:34:59.044Z,-0.20
2023-02-26T23:37:01.561Z,-0.30
2023-02-26T23:39:04.527Z,-0.20
2023-02-26T23:41:07.114Z,-0.30
2023-02-26T23:43:09.661Z,-0.20
2023-02-26T23:45:12.557Z,-0.30
2023-02-26T23:47:15.051Z,-0.40
2023-02-26T23:49:17.698Z,-0.40
2023-02-26T23:51:20.223Z,-0.40
2023-02-26T23:53:23.172Z,-0.50
2023-02-26T23:55:25.681Z,-0.60
2023-02-26T23:57:28.281Z,-0.60
2023-02-26T23:59:31.026Z,-0.60
